Sim-Planet VA

Sim-Planet Nouvel Horizon. By: Anthony Pay
Since 2020.




 METAR ET TAF INFORMATION
METAR FOR LPFR
ADDS - METARS form results

(2020 UTC 28 January 2022)
Data provider http://aviationweather.gov/metar/data/
 
METAR text: LPFR 282000Z 08005KT CAVOK 14/08 Q1025
Conditions at: LPFR (FARO , PT) observed 2000 UTC 28 January 2022
Temperature: 14.0°C (57°F)
Dewpoint: 8.0°C (46°F) [RH = 67%]
Pressure (altimeter): 30.27 inches Hg (1025.0 mb)
Winds: from the E (80 degrees) at 6 MPH (5 knots; 2.6 m/s)
Visibility: 6 or more miles (10+ km)
Ceiling: ceiling and visibility are OK
Clouds: unknown
Weather: no significant weather observed at this time

METAR text: LPFR 281930Z 10007KT CAVOK 13/07 Q1025
Conditions at: LPFR (FARO , PT) observed 1930 UTC 28 January 2022
Temperature: 13.0°C (55°F)
Dewpoint: 7.0°C (45°F) [RH = 67%]
Pressure (altimeter): 30.27 inches Hg (1025.0 mb)
Winds: from the E (100 degrees) at 8 MPH (7 knots; 3.6 m/s)
Visibility: 6 or more miles (10+ km)
Ceiling: ceiling and visibility are OK
Clouds: unknown
Weather: no significant weather observed at this time

Forecast for: LPFR (FARO , PT)
Text: TAF LPFR 281700Z 2818/2918 08012KT CAVOK
Forecast period: 1800 UTC 28 January 2022 to 1800 UTC 29 January 2022
Forecast type: FROM: standard forecast or significant change
Winds: from the E (80 degrees) at 14 MPH (12 knots; 6.2 m/s)
Visibility: 6 or more miles (10+ km)
Ceiling: unknown
Clouds: missing
Weather: NSW  (no significant weather)

 AÉROPORT DE AÉROPORT

 INFORMATIONS DE PISTE
Piste 10 Longueur de la piste 8169 ft Largeur de la piste 148 ft
Élévation de la piste 24 ft Seuil de la piste déplacés 148 ft Runway heading 100
Piste 28 Longueur de la piste 8169 ft Largeur de la piste 148 ft
Élévation de la piste 18 ft Seuil de la piste déplacés 148 ft Runway heading 280

 AÉROPORT FRÉQUENCES
Type APP Nom APP Féquence 119.4 MHZ
Type ATIS Nom ATIS Féquence 124.2 MHZ
Type GND Nom GND Féquence 118.575 MHZ
Type TWR Nom TWR Féquence 118.2 MHZ

 SIDA DE NAVIGATION
Type NDB Nom Faro Féquence 332 KHZ
Type VOR-DME Nom Faro Féquence 112800 KHZ

Nos Partenaires